Glasgow International Airport

EGPF | GLA

Glasgow , Scotland , United Kingdom

Thursday, October 24th, 2019 | 06:34

Weather

EGPF 240520Z AUTO 19009KT 9999 BKN015 BKN026 11/09 Q0998

Charts

2 Available

Gates

73 Available

Runways

1 Available

Events

No events for this airport


New event